Date,TemperatureHighF,TemperatureAvgF,TemperatureLowF,DewpointHighF,DewpointAvgF,DewpointLowF,HumidityHigh,HumidityAvg,HumidityLow,PressureMaxIn,PressureMinIn,WindSpeedMaxMPH,WindSpeedAvgMPH,GustSpeedMaxMPH,PrecipitationSumIn
2013-1-1,38.5,25.5,12.4,11.7,-5.5,-19.8,60,27,16,29.68,29.44,16,3,17,0.00
2013-1-2,34.3,13.6,-1.7,-5.8,-19.2,-31.2,24,21,17,29.85,29.65,16,4,232,0.00
2013-1-3,36.1,6.3,-11.7,-4.5,-25.3,-39.9,22,21,17,29.88,29.74,8,1,9,0.00
2013-1-4,38.5,19.9,-2.2,6.0,-11.8,-32.5,43,24,16,29.74,29.53,9,3,13,0.00
2013-1-5,46.4,28.4,11.8,9.9,-1.3,-11.9,53,30,14,30.03,29.56,11,3,13,0.00
2013-1-6,46.8,25.5,11.8,17.7,4.0,-3.5,75,42,14,30.00,29.68,8,1,8,0.00
2013-1-7,57.6,23.9,7.2,20.7,6.3,-6.4,74,51,12,30.18,29.71,6,1,9,0.00
2013-1-8,46.2,24.5,3.2,13.0,1.9,-10.1,65,42,15,30.12,30.00,13,3,14,0.00
2013-1-9,42.8,28.4,12.6,18.0,7.4,-3.2,76,44,18,30.18,29.71,10,1,10,0.00
2013-1-10,55.6,38.9,22.3,14.6,2.3,-4.5,65,23,14,30.30,29.71,17,5,17,0.00
2013-1-11,37.9,28.6,15.3,30.1,10.9,-1.8,83,51,19,30.30,30.00,7,1,7,0.00
2013-1-12,45.1,38.2,34.5,38.9,31.2,21.5,98,77,40,30.00,29.88,4,0,4,0.00
2013-1-13,46.2,41.3,36.1,45.7,38.5,28.4,98,91,56,29.94,29.74,6,1,7,0.00
2013-1-14,70.9,46.8,34.2,47.0,26.6,0.6,98,58,12,30.00,29.62,10,3,13,0.00
2013-1-15,44.8,33.0,24.4,30.3,10.8,-2.6,80,45,15,30.09,30.00,5,0,5,0.00
2013-1-16,32.7,31.1,27.9,26.5,18.8,3.8,84,62,31,30.03,29.59,6,1,232,0.00
2013-1-17,42.6,30.4,21.9,28.2,7.2,-12.9,87,44,17,29.88,29.56,10,2,13,0.00
2013-1-18,31.3,16.1,5.9,-7.3,-17.4,-25.6,22,21,18,30.18,29.83,13,3,15,0.00
2013-1-19,43.2,32.0,10.4,11.9,-4.0,-21.8,46,21,15,30.15,29.65,17,5,18,0.00
2013-1-20,50.0,38.4,24.4,15.2,3.5,-11.9,50,24,15,29.68,29.23,18,7,26,0.00
2013-1-21,36.7,22.3,10.2,8.4,-9.9,-21.9,65,25,17,29.83,29.59,13,4,17,0.00
2013-1-22,34.2,18.7,4.6,2.7,-12.0,-26.7,46,25,17,29.83,29.53,11,3,15,0.00
2013-1-23,17.4,3.8,-2.2,-15.8,-27.4,-32.5,22,21,21,29.91,29.83,11,3,11,0.00
2013-1-24,20.3,6.3,-4.5,-14.4,-25.3,-34.5,22,21,20,29.94,29.80,18,5,18,0.00
2013-1-25,26.2,13.3,4.5,-11.6,-19.5,-27.1,22,21,19,30.00,29.83,10,3,11,0.00
2013-1-26,34.9,16.7,4.8,-0.7,-13.0,-21.1,48,26,17,29.94,29.77,9,3,230,0.00
2013-1-27,35.4,18.1,7.5,-5.1,-15.8,-23.4,22,21,17,30.21,29.94,11,3,11,0.00
2013-1-28,31.8,18.3,4.5,13.5,-7.4,-26.0,65,35,18,30.21,29.83,5,1,8,0.00
2013-1-29,45.7,30.3,23.2,29.2,12.1,-0.6,83,49,17,29.97,29.83,7,1,7,0.00
2013-1-30,57.7,42.2,33.6,54.2,35.2,23.2,98,77,44,29.91,29.23,8,1,12,0.00
2013-1-31,60.8,46.7,30.0,55.4,20.0,-8.3,93,42,14,29.26,28.64,22,10,28,0.00
2013-2-1,40.1,26.2,16.0,0.6,-9.9,-17.0,34,20,16,29.83,29.29,15,5,17,0.00
2013-2-2,29.5,21.0,12.4,-2.3,-13.0,-19.8,32,21,18,30.00,29.80,9,3,10,0.00
2013-2-3,28.8,24.3,16.2,11.6,-4.0,-12.2,68,32,18,29.83,29.47,10,3,13,0.00
2013-2-4,35.2,24.0,17.1,1.0,-8.3,-16.5,47,24,17,29.65,29.47,14,5,15,0.00
2013-2-5,37.0,17.4,3.4,-2.5,-14.2,-26.9,46,23,17,29.80,29.65,8,1,9,0.00
2013-2-6,41.9,27.3,19.4,10.0,-2.3,-15.1,61,30,16,30.06,29.71,10,3,15,0.00
2013-2-7,39.7,20.3,9.3,-2.8,-14.4,-21.8,22,20,16,30.30,30.06,9,2,10,0.00
2013-2-8,19.2,15.6,12.2,4.1,-2.7,-16.5,56,45,20,30.30,29.53,27,9,27,0.00
2013-2-9,26.8,19.1,9.7,17.6,6.5,-6.5,68,58,43,29.91,29.41,25,8,25,0.00
2013-2-10,53.6,17.3,-9.9,20.4,-8.4,-24.6,57,34,14,30.12,29.91,6,1,8,0.00
2013-2-11,41.5,24.6,3.7,36.2,11.4,-15.2,89,59,26,30.12,29.35,6,0,8,0.00
2013-2-12,51.3,38.6,29.7,34.1,11.1,-0.4,93,38,16,29.59,29.32,14,4,14,0.00
2013-2-13,59.4,33.7,20.8,15.1,4.5,-4.9,70,32,14,29.62,29.50,8,2,8,0.00
2013-2-14,56.7,34.5,22.5,17.4,4.9,-5.7,72,33,14,29.77,29.47,10,1,10,0.00
2013-2-15,55.4,33.0,15.6,24.5,11.3,2.0,84,46,15,29.77,29.65,9,2,10,0.00
2013-2-16,45.0,36.6,28.6,27.8,8.3,-7.7,83,36,17,29.71,29.50,10,2,11,0.00
2013-2-17,30.7,21.8,15.6,5.0,-8.4,-17.4,46,27,18,29.50,29.06,17,6,17,0.00
2013-2-18,39.2,21.9,12.0,-3.2,-13.3,-19.5,22,20,16,29.85,29.32,21,6,21,0.00
2013-2-19,47.8,34.0,17.8,40.4,5.5,-16.5,91,36,14,29.88,29.32,10,2,10,0.00
2013-2-20,39.9,33.3,26.1,39.2,5.3,-10.9,98,36,16,29.50,29.23,15,4,18,0.00
2013-2-21,37.0,26.3,21.4,-0.4,-9.1,-13.4,32,20,17,29.94,29.47,12,5,185,0.00
2013-2-22,52.5,29.8,12.7,13.3,1.9,-6.3,62,34,14,30.18,29.94,13,2,13,0.00
2013-2-23,41.5,33.5,25.9,33.5,18.3,3.5,94,58,21,30.12,29.74,6,0,6,0.00
2013-2-24,37.4,36.1,35.1,36.7,35.2,33.5,98,97,88,29.74,29.65,7,2,7,0.00
2013-3-5,37.9,35.1,30.0,22.6,17.7,13.0,68,49,40,29.85,29.80,8,1,8,0.00
2013-3-6,38.1,35.8,33.1,27.1,14.8,7.6,70,43,29,29.97,29.85,26,12,27,0.00
2013-3-7,35.6,33.4,32.2,17.4,9.8,-0.4,52,37,22,29.94,29.85,25,10,25,0.00
2013-3-8,42.4,41.4,40.6,-0.7,-1.4,-2.0,16,16,16,29.91,29.88,12,7,15,0.00
2013-3-13,30.9,27.8,26.2,23.7,19.3,13.1,85,71,50,29.53,29.53,0,0,0,0.00
2013-3-14,31.6,25.1,20.1,24.2,2.1,-14.5,90,45,18,29.56,29.47,13,4,19,0.00
2013-3-15,46.9,28.7,15.8,28.5,-4.3,-17.2,85,26,14,29.59,29.38,12,5,15,0.00
2013-3-16,45.3,30.5,17.6,25.6,-1.3,-10.5,77,28,15,29.65,29.41,10,2,10,0.00
2013-3-17,38.8,25.7,14.2,9.9,-4.6,-16.9,70,29,16,30.09,29.65,15,3,17,0.00
2013-3-18,45.1,25.3,5.5,6.8,-9.4,-25.9,44,21,15,30.21,30.03,8,2,10,0.00
2013-3-19,34.9,31.7,25.2,30.2,24.5,5.9,87,75,34,30.03,29.44,23,5,23,0.00
2013-3-20,38.7,29.7,21.9,14.7,2.6,-7.1,64,35,16,29.53,29.44,13,3,15,0.00
2013-3-21,59.5,29.2,10.2,17.8,1.8,-6.4,70,36,14,29.56,29.38,9,1,9,0.00
2013-3-22,49.3,33.8,22.6,20.3,1.9,-7.1,84,30,15,29.47,29.35,13,2,13,0.00
2013-3-23,45.9,33.9,23.7,4.2,-2.2,-7.4,35,21,15,29.50,29.35,15,6,23,0.00
2013-3-24,63.9,38.2,24.4,18.7,4.4,-4.3,75,26,13,29.56,29.47,12,2,17,0.00
2013-3-25,43.5,34.0,19.6,20.5,10.1,1.5,80,40,18,29.56,29.35,15,5,17,0.00
2013-3-26,57.4,40.0,29.5,9.7,2.1,-5.5,35,21,14,29.53,29.35,10,3,10,0.00
2013-3-27,63.9,41.1,22.8,29.0,10.4,-1.1,79,34,13,29.65,29.50,10,2,11,0.00
2013-3-28,54.1,42.0,30.6,30.2,14.9,2.8,77,40,15,29.77,29.62,10,2,10,0.00
2013-3-29,64.0,43.2,27.9,28.8,14.2,3.2,87,40,13,29.80,29.74,8,2,10,0.00
2013-3-30,66.0,43.7,25.2,22.0,9.2,-4.7,63,27,13,29.85,29.77,9,1,10,0.00
2013-3-31,59.7,42.1,20.1,24.6,10.7,4.9,78,34,14,29.88,29.59,11,2,11,0.00
2013-4-1,61.9,45.2,33.3,39.7,19.5,-6.2,87,43,14,29.59,29.26,13,4,15,0.00
2013-4-2,41.7,33.5,27.5,-1.2,-6.2,-10.4,18,17,16,29.65,29.50,20,7,184,0.00
2013-4-3,49.5,36.0,28.0,5.3,-4.5,-10.0,18,17,15,29.85,29.62,15,6,19,0.00
2013-4-4,56.7,42.0,22.8,9.6,-0.6,-11.3,27,16,14,30.00,29.77,14,5,15,0.00
2013-4-5,68.7,46.6,36.3,14.1,4.3,-4.5,31,18,12,29.77,29.41,10,5,13,0.00
2013-4-6,49.6,35.0,22.5,5.3,-4.5,-12.6,33,18,14,30.12,29.62,13,4,15,0.00
2013-4-7,61.0,40.5,18.3,20.3,5.1,-8.2,56,26,14,30.12,29.74,13,3,17,0.00
2013-4-8,73.4,49.0,34.7,35.9,18.2,4.9,90,36,11,29.91,29.71,11,3,15,0.00
2013-4-9,66.7,49.2,39.2,36.1,23.8,8.4,77,41,12,29.88,29.65,13,2,13,0.00
2013-4-10,66.6,49.8,43.9,44.0,33.4,14.8,89,59,15,29.77,29.65,10,1,10,0.00
2013-4-11,46.9,43.9,40.8,43.9,22.5,-1.3,89,51,16,29.94,29.65,5,2,6,0.00
2013-4-12,41.7,36.4,33.8,30.6,15.6,-4.7,79,48,16,30.00,29.65,15,7,17,0.00
2013-4-13,62.2,42.0,34.2,30.9,19.6,6.2,79,47,14,29.71,29.56,11,2,13,0.00
2013-4-14,62.2,44.7,31.8,37.9,16.6,2.5,93,40,14,29.97,29.68,11,3,13,0.00
2013-4-15,62.6,42.0,24.3,30.6,16.7,4.4,89,46,13,30.18,29.97,10,2,11,0.00
2013-4-16,64.8,49.2,28.8,36.3,23.1,9.9,94,45,13,30.18,29.77,20,5,21,0.00
2013-4-17,72.9,56.7,33.8,36.9,14.9,2.8,53,21,11,30.12,29.77,231,4,231,0.00
2013-4-18,59.7,45.6,26.1,30.2,14.3,4.1,91,37,14,30.24,29.94,11,2,18,0.00
2013-4-19,76.8,61.3,48.0,45.9,34.1,18.2,79,39,13,29.94,29.41,20,5,22,0.00
2013-4-20,67.8,54.0,43.2,59.0,23.1,-1.4,82,36,14,29.94,29.35,14,6,16,0.00
2013-4-21,61.9,45.0,25.7,22.1,8.9,-1.6,80,28,14,30.47,30.27,9,3,13,0.00
2013-4-22,51.3,37.8,23.2,29.1,11.2,-2.3,85,41,16,30.56,30.42,17,4,17,0.00
2013-4-23,41.7,37.6,27.3,37.1,26.7,14.5,84,65,42,30.42,29.97,13,5,16,0.00
2013-4-24,80.6,52.7,41.7,43.8,30.0,14.6,87,50,9,29.97,29.56,13,4,13,0.00
2013-4-25,64.2,48.9,34.3,31.3,19.1,2.2,59,33,13,30.06,29.56,13,3,13,0.00
2013-4-26,63.5,44.8,26.1,33.2,16.7,4.3,88,44,13,30.21,30.06,13,3,15,0.28
2013-4-27,70.3,48.7,27.1,32.7,18.7,3.1,91,42,12,30.21,30.09,13,2,13,0.00
2013-4-28,70.7,50.9,29.8,32.2,18.3,5.3,90,38,12,30.12,30.03,10,2,14,0.08
2013-4-29,71.1,48.9,33.3,41.7,21.6,7.3,88,43,12,30.06,29.97,13,2,13,0.00
2013-4-30,70.9,53.1,34.9,30.4,19.4,10.4,79,37,12,30.18,30.03,8,1,11,0.00
2013-5-1,67.6,42.3,30.2,25.0,17.8,5.7,76,43,12,30.24,30.15,4,0,7,0.00
2013-5-2,39.6,39.6,39.6,21.0,21.0,21.0,47,47,47,30.30,30.15,21,3,21,0.00
2013-5-3,57.7,46.4,37.4,30.9,19.6,15.8,77,37,19,30.33,30.18,16,3,16,0.00
2013-5-4,64.8,46.7,30.7,34.9,21.8,4.7,94,47,13,30.18,30.09,12,3,12,0.00
2013-5-5,69.8,46.0,26.4,34.9,18.3,6.3,85,44,12,30.15,30.03,10,2,10,0.00
2013-5-6,71.2,47.9,28.4,44.3,26.3,11.2,90,55,12,30.06,29.94,9,2,10,0.00
2013-5-7,80.2,59.9,45.7,50.3,34.4,14.9,98,53,10,29.97,29.88,12,2,13,0.00
2013-5-8,79.5,61.7,43.3,53.3,41.3,27.5,94,55,15,30.00,29.85,10,2,12,0.00
2013-5-9,67.3,58.8,55.8,56.6,51.5,38.5,98,78,35,29.88,29.68,8,2,10,0.64
2013-5-10,85.3,63.4,54.5,58.3,41.8,16.7,98,58,11,29.74,29.68,8,1,8,0.00
2013-5-11,69.6,61.9,52.5,57.0,48.1,37.5,95,65,32,29.71,29.47,11,3,13,0.12
2013-5-12,75.2,61.8,48.4,59.5,33.2,4.3,93,46,11,29.53,29.32,11,3,14,0.12
2013-5-13,63.1,48.9,37.6,12.1,6.3,0.8,32,18,13,29.80,29.53,15,5,15,0.00
2013-5-14,72.7,49.2,29.5,37.6,17.8,6.9,89,38,11,29.83,29.71,11,2,13,0.00
2013-5-15,70.0,50.5,29.1,42.7,25.7,8.4,88,49,12,29.83,29.44,16,2,16,0.04
2013-5-16,82.6,65.6,42.4,45.8,22.2,9.3,92,28,9,29.59,29.38,13,4,25,0.00
2013-5-17,77.5,58.6,43.7,37.5,18.0,9.4,77,24,10,30.00,29.59,8,2,13,0.00
2013-5-18,78.8,54.9,36.1,39.8,26.4,11.8,87,43,10,30.09,29.97,14,3,14,0.00
2013-5-19,63.5,53.4,50.5,46.2,35.5,24.8,84,53,23,30.15,30.03,11,2,11,0.00
2013-5-20,58.8,56.2,50.5,55.3,51.0,45.9,95,83,81,30.03,29.71,8,2,8,0.08
2013-5-21,58.8,57.9,49.8,53.0,52.2,45.2,84,81,81,29.85,29.74,13,5,14,0.04
2013-5-22,56.1,53.4,50.9,50.1,43.3,36.7,92,71,49,29.80,29.68,8,3,10,1.16
2013-5-23,72.7,60.5,50.9,60.7,48.7,36.5,97,68,29,29.74,29.59,9,2,9,0.24
2013-5-24,75.9,63.8,52.7,61.2,50.9,34.0,90,66,27,29.62,29.41,10,2,10,1.75
2013-5-25,53.2,49.7,41.7,46.4,37.8,30.0,79,64,44,29.62,29.44,15,5,18,1.34
2013-5-26,63.1,49.8,40.8,38.2,20.9,7.2,83,40,13,29.83,29.41,11,3,15,0.20
2013-5-27,75.4,55.8,37.2,35.4,19.6,7.2,79,31,10,29.97,29.83,14,3,16,0.00
2013-5-28,78.6,57.1,35.1,41.2,24.3,9.8,90,41,10,30.03,29.94,10,2,10,0.00
2013-5-29,65.3,57.1,46.4,55.6,46.8,37.8,89,70,38,29.97,29.80,6,0,7,0.24
2013-5-30,92.5,73.6,55.4,61.7,43.3,23.6,98,50,9,29.83,29.77,10,2,13,0.00
2013-5-31,97.5,77.7,57.7,63.5,43.4,24.7,97,45,8,29.85,29.68,10,2,11,0.00
2013-6-1,95.0,79.7,61.0,63.1,42.1,24.7,91,38,9,29.74,29.59,11,3,15,0.00
2013-6-2,91.0,79.8,68.9,55.4,42.2,24.3,61,31,10,29.65,29.47,13,5,17,0.00
2013-6-3,79.2,69.0,56.8,30.9,24.0,19.6,37,20,12,29.59,29.50,9,4,13,0.28
2013-6-4,73.6,61.8,45.5,38.7,20.9,11.4,71,24,11,29.88,29.59,13,3,13,0.00
2013-6-5,80.8,61.2,42.4,47.4,27.4,12.4,90,40,9,29.97,29.88,8,2,10,0.00
2013-6-6,71.6,61.3,51.3,50.0,31.3,12.8,83,40,12,30.00,29.91,10,3,14,0.00
2013-6-7,55.9,53.4,51.8,48.8,46.0,40.2,85,76,58,29.85,29.68,13,7,13,1.08
2013-6-8,80.2,63.9,54.1,53.8,39.8,22.2,84,48,12,29.77,29.44,13,4,13,0.67
2013-6-9,87.3,68.0,53.1,54.7,34.8,15.8,91,40,8,29.94,29.77,8,1,10,0.00
2013-6-10,73.4,63.0,49.5,55.1,39.4,29.6,98,52,21,30.00,29.83,8,1,10,0.16
2013-6-11,63.9,57.6,55.6,55.3,47.3,32.7,91,70,31,29.83,29.35,17,5,17,1.04
2013-6-12,72.5,62.1,54.7,56.2,40.5,27.6,98,51,22,29.59,29.32,11,2,12,0.04
2013-6-13,59.9,55.6,49.8,52.9,48.6,36.1,89,78,43,29.59,29.50,5,0,6,0.20
2013-6-14,85.6,63.5,54.3,55.6,40.2,14.4,98,56,8,29.53,29.44,8,1,8,0.32
2013-6-15,55.2,52.3,49.5,49.7,47.3,45.0,89,83,76,29.71,29.53,0,0,0,0.00
2013-6-16,75.6,63.9,45.9,55.8,36.8,19.6,92,45,13,29.71,29.50,6,1,8,0.00
2013-6-17,84.9,68.7,53.2,57.7,40.4,22.4,90,44,11,29.68,29.53,11,3,11,0.08
2013-6-18,78.4,62.8,56.5,63.8,49.5,27.0,98,67,15,29.77,29.65,5,0,6,0.00
2013-6-19,87.4,64.3,49.1,54.3,30.8,14.4,87,41,8,29.94,29.71,9,2,12,0.00
2013-6-20,87.3,65.6,42.6,52.6,29.9,14.9,88,40,8,30.03,29.94,8,1,10,0.00
2013-6-21,91.2,70.9,50.2,58.0,34.2,16.0,94,43,8,30.03,29.97,8,1,10,0.00
2013-6-22,85.6,70.4,53.8,64.1,49.3,24.3,92,55,11,30.00,29.88,8,1,12,0.16
2013-6-23,94.3,73.8,63.7,62.8,48.8,30.7,88,47,11,29.91,29.74,11,1,13,0.00
2013-6-24,100.6,79.5,67.5,64.4,46.3,25.0,82,41,7,29.77,29.65,10,3,232,0.00
2013-6-25,92.8,78.9,65.8,65.2,46.4,25.3,90,41,9,29.71,29.50,10,3,11,0.00
2013-6-26,73.9,64.9,60.3,66.1,60.5,57.9,96,86,70,29.68,29.56,10,4,14,0.43
2013-6-27,72.3,63.2,58.8,59.6,51.4,38.2,97,70,31,29.68,29.59,8,3,10,0.44
2013-6-28,73.8,63.5,57.2,63.9,54.6,43.2,90,74,36,29.59,29.29,13,5,15,0.68
2013-6-29,89.4,74.9,66.6,65.6,50.5,28.4,91,50,13,29.50,29.32,10,2,12,0.00
2013-6-30,90.5,76.5,66.0,65.7,51.5,34.8,94,48,16,29.71,29.50,9,2,9,0.00
2013-7-1,84.7,73.6,66.7,69.1,59.7,39.8,93,66,21,29.88,29.71,6,1,6,1.54
2013-7-2,77.9,66.2,59.4,72.1,61.0,49.4,97,84,46,30.00,29.85,9,2,12,0.16
2013-7-3,92.3,71.6,59.4,67.6,52.8,38.9,98,61,18,30.00,29.88,8,1,11,0.00
2013-7-4,95.0,81.7,66.6,72.7,52.2,31.5,98,46,11,29.97,29.85,10,3,10,0.00
2013-7-5,95.5,83.3,69.3,69.3,49.6,26.0,91,40,9,29.94,29.80,10,3,12,0.00
2013-7-6,94.8,81.2,67.8,70.2,49.4,25.4,87,41,9,29.85,29.74,9,2,13,0.00
2013-7-7,96.4,77.4,64.2,68.8,50.9,24.7,97,53,9,29.80,29.71,8,1,9,0.60
2013-7-8,81.7,74.7,64.8,70.3,58.0,46.1,97,63,29,29.88,29.71,10,1,10,0.04
2013-7-9,68.2,67.0,64.6,60.8,54.3,50.9,86,65,54,29.91,29.85,4,2,4,0.00
2013-7-10,68.2,68.2,68.2,50.9,50.9,50.9,54,54,54,29.88,29.59,6,2,6,0.04
2013-7-11,79.3,79.3,79.3,48.6,48.6,48.6,34,34,34,29.74,29.65,0,0,3,0.39
2013-7-12,79.3,79.3,79.3,48.6,48.6,48.6,34,34,34,29.94,29.74,0,0,0,0.00
2013-7-13,79.3,79.3,79.3,48.6,48.6,48.6,34,34,34,30.09,29.94,0,0,0,0.00
2013-7-14,0.0,0.0,0.0,0.0,0.0,0.0,0,0,100,30.00,30.00,0,0,0,0.00
2013-7-15,99.1,20.5,0.0,63.3,12.2,0.0,76,11,8,30.00,29.88,3,0,3,0.00
2013-7-16,131.4,86.1,64.2,75.8,48.4,11.8,87,52,2,29.97,29.88,0,0,0,0.00
2013-7-17,112.5,84.6,66.2,75.1,45.5,23.6,90,40,5,29.97,29.77,0,0,0,0.00
2013-7-18,97.9,88.6,81.7,47.3,41.9,25.0,30,21,8,29.83,29.74,0,0,0,0.00
2013-7-19,95.9,92.8,82.9,55.5,40.1,27.5,39,17,9,29.74,29.47,0,0,0,0.00
2013-7-20,88.5,84.9,81.3,55.5,43.0,35.5,39,24,16,29.59,29.44,0,0,0,0.00
2013-7-21,87.1,80.3,65.3,61.4,36.1,22.4,83,26,12,29.80,29.59,0,0,0,0.00
2013-7-22,80.4,69.7,65.3,61.6,50.4,35.0,80,55,21,29.85,29.71,0,0,0,0.00
2013-7-23,75.4,69.2,66.4,64.6,57.3,42.8,91,69,33,29.71,29.35,0,0,0,0.00
2013-7-24,88.5,73.9,61.3,69.7,46.3,22.1,98,50,10,29.77,29.38,0,0,0,0.00
2013-7-25,70.2,62.9,57.6,58.3,35.8,22.2,87,41,17,29.91,29.77,0,0,0,0.00
2013-7-26,74.8,67.6,62.6,63.6,50.8,33.8,88,59,23,29.88,29.71,0,0,0,0.00
2013-7-27,87.3,73.6,60.1,63.6,42.6,22.1,95,45,11,29.83,29.74,0,0,0,0.00
2013-7-28,71.8,68.3,62.2,66.8,57.3,52.2,98,70,50,29.83,29.80,0,0,0,0.00
2013-7-29,81.1,71.9,64.9,65.8,52.8,36.2,98,58,20,29.83,29.80,0,0,0,0.00
2013-7-30,88.9,71.5,57.7,64.2,39.3,16.9,95,47,8,29.88,29.80,0,0,0,0.00
2013-7-31,91.6,69.6,53.6,58.1,38.7,16.6,97,47,8,29.91,29.85,0,0,0,0.00
2013-8-1,87.1,69.6,55.4,62.8,45.0,22.8,98,50,11,29.85,29.77,0,0,0,0.00
2013-8-2,87.1,71.7,63.9,63.7,47.3,16.6,91,54,8,29.77,29.56,0,0,0,0.00
2013-8-3,82.8,69.2,58.5,61.4,39.3,16.6,94,43,9,29.65,29.56,0,0,0,0.00
2013-8-4,87.1,67.7,53.1,57.7,34.7,15.3,97,41,8,29.65,29.56,0,0,0,0.00
2013-8-5,82.8,65.3,51.1,54.4,28.6,11.1,97,38,9,29.77,29.65,0,0,0,0.00
2013-8-6,63.7,56.1,53.1,50.1,42.7,25.8,84,64,24,29.94,29.94,0,0,0,0.00
2013-8-7,85.3,66.1,49.1,58.8,35.4,14.8,98,45,9,29.97,29.91,0,0,0,0.00
2013-8-8,84.9,71.2,59.5,66.0,47.3,33.8,82,47,16,29.91,29.77,0,0,0,0.00
2013-8-9,75.2,72.4,69.8,68.8,63.6,52.9,95,74,49,29.80,29.50,0,0,0,0.00
2013-8-10,88.3,72.8,56.7,68.8,42.0,15.5,98,48,8,29.80,29.56,0,0,0,0.00
2013-8-11,90.7,67.0,50.0,54.4,34.4,15.1,98,45,7,29.85,29.77,0,0,0,0.00
2013-8-12,91.4,68.4,53.4,66.0,39.3,16.5,98,51,7,29.80,29.71,0,0,0,0.00
2013-8-13,76.8,67.6,59.4,65.2,50.2,34.9,98,61,24,29.71,29.50,0,0,0,0.00
2013-8-16,-200.0,0.0,200.0,-99.9,-99.9,-99.9,0,0,100,0.00,40.00,0,-999,0,0.00
2013-8-17,64.2,9.2,64.2,12.4,-83.9,-99.9,13,2,13,30.03,30.03,0,-856,0,0.00
2013-8-19,85.5,62.7,61.0,64.8,41.1,-99.9,98,65,43,29.85,29.80,9,-83,9,0.00
2013-8-20,94.3,65.4,55.4,71.6,43.1,-99.9,98,64,38,29.97,29.83,10,-167,10,0.00
2013-8-21,93.2,53.8,56.5,72.7,11.6,-99.9,98,45,40,30.03,29.88,11,-806,11,0.00
2013-8-22,93.2,71.6,58.1,72.1,56.9,-99.9,98,71,41,29.91,29.68,13,-43,13,0.08
2013-8-23,88.0,70.8,51.3,70.9,54.3,-99.9,98,64,33,30.03,29.68,16,-145,16,0.00
2013-8-24,86.0,58.9,43.2,61.7,44.0,-99.9,98,70,29,30.24,30.00,7,-81,10,0.00
2013-8-25,86.0,64.3,42.6,64.4,53.6,42.1,98,74,36,30.27,29.94,8,1,10,0.04
2013-8-26,85.5,69.9,57.4,70.3,65.1,56.5,98,86,56,30.03,29.71,10,2,12,0.04
2013-8-27,92.3,72.0,57.4,72.3,65.4,56.8,98,83,45,29.83,29.71,8,2,11,0.00
2013-8-28,90.9,70.5,57.2,73.9,65.0,56.7,98,85,49,29.94,29.77,13,1,13,0.16
2013-8-29,68.7,64.9,62.4,65.8,62.5,-99.9,98,93,79,30.00,29.83,14,-174,15,0.16
2013-8-30,89.1,72.6,62.2,70.5,65.9,61.7,98,82,48,29.91,29.65,10,-70,10,0.00
2013-8-31,86.5,74.8,66.0,76.8,71.3,65.5,98,89,68,29.74,29.65,12,3,12,0.00
2013-9-1,93.9,77.4,69.3,76.1,71.3,-99.9,98,84,46,29.80,29.65,10,-245,11,0.00
2013-9-2,76.8,70.6,68.7,74.7,69.5,-99.9,98,97,90,29.77,29.59,6,-277,6,0.50
2013-9-3,88.9,73.1,61.7,76.1,69.2,61.2,98,89,58,29.68,29.59,8,2,8,0.04
2013-9-4,85.5,68.9,56.3,62.4,57.9,-99.9,98,74,39,29.80,29.65,13,3,13,0.00
2013-9-5,77.9,61.6,42.6,62.8,53.7,38.7,98,79,34,30.03,29.74,12,-19,12,0.00
2013-9-6,74.5,55.4,36.3,54.7,43.3,35.8,98,71,34,30.12,29.94,11,2,12,0.00
2013-9-7,82.6,63.2,45.0,60.3,52.3,44.4,98,72,36,29.94,29.71,15,3,15,0.00
2013-9-8,76.5,63.6,42.8,61.9,49.8,37.0,95,63,37,30.00,29.59,18,3,18,0.00
2013-9-9,73.9,53.1,35.8,54.1,36.6,-99.9,98,67,37,30.09,29.94,15,-125,15,0.00
2013-9-10,73.6,63.6,50.0,70.7,61.2,-99.9,98,93,82,30.03,29.88,10,-12,10,0.00
2013-9-11,96.3,80.1,68.7,80.2,73.2,66.9,98,82,50,29.94,29.77,17,4,17,0.00
2013-9-12,87.1,71.2,63.9,76.8,69.2,63.3,98,94,70,29.85,29.56,13,2,14,1.25
2013-9-13,77.9,66.2,56.7,73.2,65.1,56.1,98,96,80,29.65,29.47,9,2,9,3.20
2013-9-14,76.5,61.9,50.0,61.2,54.9,-99.9,98,81,48,29.94,29.62,13,2,13,0.04
2013-9-17,68.2,44.5,40.3,45.0,33.3,-99.9,98,80,39,30.30,30.18,2,-223,2,0.00
2013-9-18,79.9,55.4,35.1,54.3,44.7,-99.9,98,75,34,30.21,30.00,11,1,11,0.00
2013-9-19,83.1,58.8,38.8,60.4,48.8,38.1,98,76,35,30.03,29.91,9,1,9,0.00
2013-9-20,82.8,60.2,41.2,62.4,50.7,40.6,98,77,39,30.00,29.88,10,1,10,0.00
2013-9-21,78.6,62.9,50.5,65.7,59.3,50.0,98,89,60,29.94,29.65,14,-138,14,0.00
2013-9-22,75.9,65.2,50.9,66.0,57.4,43.5,98,79,43,29.71,29.47,21,4,21,0.00
2013-9-23,68.0,53.3,37.9,46.4,41.5,37.0,98,67,43,29.85,29.71,17,3,17,0.00
2013-9-24,69.8,31.6,33.8,47.7,6.6,-99.9,98,72,39,29.88,29.74,8,-32,8,0.00
2013-9-25,69.8,52.8,37.4,51.3,45.6,36.7,98,79,47,29.88,29.77,9,1,9,0.00
2013-9-26,75.2,58.6,42.8,53.1,49.5,42.3,98,76,43,30.06,29.88,10,-23,10,0.00
2013-9-27,76.3,60.1,45.7,56.3,52.0,45.1,98,77,45,30.18,30.00,8,-114,8,0.00
2013-9-28,81.7,56.7,40.3,61.5,48.7,39.7,98,79,43,30.24,30.12,11,2,11,0.00
2013-9-29,75.2,52.5,38.8,58.1,45.7,38.3,98,82,41,30.18,30.00,10,1,10,0.00
2013-9-30,77.9,53.0,38.1,58.1,46.2,37.6,98,82,45,30.03,29.85,10,1,10,0.00
2013-10-1,83.7,58.1,36.9,61.9,48.8,36.3,98,78,35,29.88,29.71,12,1,12,0.00
2013-10-2,84.9,62.6,44.8,62.4,54.0,44.2,98,78,43,29.83,29.68,14,-137,14,0.00
2013-10-3,82.2,60.7,44.6,63.0,51.4,43.9,98,77,35,30.00,29.83,10,1,10,0.00
2013-10-4,75.4,58.4,42.6,59.7,51.5,-99.9,98,82,47,30.00,29.91,7,1,7,0.00
2013-10-5,70.2,60.4,56.8,57.2,53.1,47.3,98,78,52,30.06,29.94,10,2,10,0.13
2013-10-6,57.2,53.7,50.0,56.5,50.2,-99.9,98,89,69,30.18,30.00,10,3,10,0.16
2013-10-7,75.0,63.3,55.6,69.8,62.2,55.0,98,96,82,30.06,29.68,18,3,18,0.37
2013-10-8,69.4,54.9,37.0,59.4,43.8,36.5,98,72,36,30.30,29.77,10,2,17,0.00
2013-10-9,71.2,46.6,30.9,51.8,38.7,30.2,98,80,37,30.42,30.27,10,1,10,0.00
2013-10-10,67.8,48.7,32.5,52.5,43.5,32.0,98,85,48,30.30,30.06,6,0,6,0.00
2013-10-11,74.1,53.6,39.0,57.4,48.1,38.3,98,85,46,30.09,30.00,7,1,7,0.00
2013-10-12,56.8,50.2,40.5,55.2,48.2,-99.9,98,95,90,30.33,30.06,16,4,16,0.00
2013-10-13,64.4,45.1,33.6,55.8,41.2,33.1,98,88,54,30.39,30.30,8,1,8,0.00
2013-10-14,69.6,49.4,30.0,52.9,41.9,29.5,98,79,42,30.30,30.12,10,-90,10,0.00
2013-10-15,67.5,56.7,48.0,56.1,52.5,47.5,98,87,63,30.18,30.09,10,2,10,0.00
2013-10-16,66.0,56.6,48.7,56.7,53.0,47.5,98,89,53,30.09,29.83,8,2,8,0.00
2013-10-17,79.0,60.0,47.8,60.8,52.9,44.1,98,82,39,29.83,29.59,15,3,15,0.00
2013-10-18,71.8,59.2,45.1,61.2,50.0,40.5,98,75,43,29.80,29.47,23,4,23,0.09
2013-10-19,70.2,51.5,33.4,52.0,42.7,32.7,98,75,41,29.88,29.65,13,2,13,0.00
2013-10-20,67.5,53.9,38.8,51.1,39.8,29.8,98,63,35,29.91,29.59,17,-170,17,0.00
2013-10-21,71.6,48.7,30.2,47.5,39.2,29.1,98,74,37,30.03,29.88,13,2,13,0.00
2013-10-22,64.4,50.6,37.4,55.8,44.9,-99.9,98,83,59,29.88,29.59,15,2,15,0.00
2013-10-23,58.3,43.6,30.0,44.2,35.2,29.3,98,76,42,29.68,29.47,6,1,6,0.00
2013-10-24,55.9,45.3,34.7,36.3,30.3,25.9,93,57,39,29.77,29.53,18,5,18,0.00
2013-10-25,54.7,39.2,24.1,38.8,27.9,19.2,98,67,39,30.03,29.77,13,-50,13,0.00
2013-10-26,52.0,39.1,21.2,36.9,26.7,-99.9,97,65,40,30.06,29.77,17,3,17,0.00
2013-10-27,62.2,46.7,31.1,42.1,33.4,-99.9,91,63,40,29.94,29.68,20,4,20,0.00
2013-10-28,61.9,39.4,24.4,38.3,27.5,17.8,98,66,38,30.27,29.94,20,3,20,0.00
2013-10-29,56.8,32.6,16.7,34.2,19.1,10.9,95,63,18,30.36,30.24,8,1,8,0.00
2013-10-30,55.6,35.5,22.3,36.9,27.3,17.4,94,74,46,30.27,30.06,11,1,11,0.00
2013-10-31,60.3,41.1,25.0,59.5,39.3,23.4,98,93,82,30.15,29.68,13,1,13,0.12
2013-11-1,72.0,64.1,51.8,63.9,58.1,49.6,98,82,57,29.68,29.29,31,9,31,0.00
2013-11-2,70.7,52.9,36.1,54.3,43.3,35.4,98,74,37,29.65,29.47,11,-292,11,0.00
2013-11-3,55.0,42.3,28.2,48.9,28.1,12.4,97,59,36,30.33,29.59,11,-535,11,0.04
2013-11-4,50.7,30.6,18.5,23.2,14.7,9.0,79,54,28,30.62,30.30,15,-488,15,0.00
2013-11-5,54.7,33.2,17.6,33.3,23.8,13.1,93,71,40,30.62,30.39,3,-761,3,0.00
2013-11-6,63.1,47.2,28.8,48.7,39.4,26.6,98,76,47,30.39,29.88,15,4,15,0.00
2013-11-7,62.6,52.5,34.3,60.6,47.7,-99.9,97,85,63,29.91,29.53,15,4,15,0.04
2013-11-8,51.6,39.0,27.5,31.6,24.8,-99.9,83,58,41,29.94,29.71,17,4,17,0.00
2013-11-9,46.4,38.3,29.8,29.7,21.9,16.0,78,52,40,30.06,29.94,14,-99,14,0.00
2013-11-10,52.7,40.4,34.9,43.3,33.1,-99.9,98,81,68,29.94,29.62,175,6,175,0.09
2013-11-11,54.9,43.1,36.9,33.8,27.4,-99.9,72,56,38,29.97,29.65,175,4,175,0.00
2013-11-12,45.7,34.4,26.4,30.9,18.8,10.9,63,53,47,30.06,29.74,15,4,15,0.00
2013-11-13,40.6,29.3,19.0,18.0,11.0,6.4,61,46,34,30.15,30.03,18,4,18,0.00
2013-11-14,54.7,36.1,24.4,29.8,20.5,10.8,85,55,38,30.03,29.88,16,4,16,0.00
2013-11-15,56.8,34.3,21.9,29.3,22.4,18.3,93,66,26,30.09,29.97,10,1,10,0.00
2013-11-16,64.8,37.8,24.4,36.5,26.8,20.5,92,69,28,30.24,30.06,4,1,4,0.00
2013-11-17,53.4,42.3,23.4,52.9,41.4,20.7,98,96,88,30.24,29.80,6,2,6,0.08
2013-11-18,68.7,54.7,44.2,61.7,43.9,-99.9,98,74,39,29.83,29.38,16,-252,16,0.33
2013-11-19,46.4,38.4,28.4,30.7,20.0,12.6,59,47,38,30.15,29.50,26,-576,26,0.00
2013-11-20,47.8,31.6,17.4,21.2,13.1,8.6,78,48,28,30.53,30.15,0,-999,0,0.00
2013-11-21,52.2,29.0,14.2,27.0,11.1,-11.6,89,56,7,30.53,30.24,0,-999,0,0.00
2013-11-22,41.9,36.4,27.5,39.7,33.1,16.9,98,88,64,30.27,29.71,3,-663,3,0.04
2013-11-23,47.3,37.8,27.3,40.6,24.5,13.1,98,61,36,29.80,29.65,22,-535,22,0.00
2013-11-24,30.4,23.5,18.0,18.7,3.9,-2.6,69,43,35,30.03,29.65,26,-441,26,0.00
2013-11-25,36.7,23.5,16.0,10.8,-4.7,-19.3,52,32,11,30.24,30.00,20,4,20,0.00
2013-11-26,37.9,32.5,28.0,32.7,22.1,10.6,98,67,45,30.24,30.00,10,3,10,0.04
2013-11-27,60.8,48.6,33.3,60.1,47.4,-99.9,98,97,83,30.00,29.12,24,1,24,2.16
2013-11-28,36.7,30.5,19.9,31.3,13.8,-99.9,84,51,33,30.33,29.23,26,-86,26,0.00
2013-11-29,35.8,22.0,9.5,11.8,4.5,-3.5,62,47,27,30.62,30.30,12,2,12,0.00
2013-11-30,36.9,20.5,5.4,21.2,8.0,-99.9,85,59,44,30.68,30.30,10,1,10,0.04
2013-12-1,36.9,30.5,28.8,35.6,18.7,-99.9,98,79,63,30.33,29.94,6,-253,6,0.00
2013-12-2,40.5,37.3,35.4,39.7,36.7,34.9,98,98,95,29.94,29.83,0,-999,0,0.00
2013-12-3,51.8,36.6,23.5,41.5,33.4,22.6,98,90,54,29.83,29.74,0,-999,0,0.00
2013-12-4,42.8,29.9,21.7,33.6,24.9,21.0,98,84,53,30.09,29.83,2,-933,2,0.00
2013-12-5,38.1,34.0,22.8,37.6,33.0,22.3,98,96,85,30.15,29.80,6,-464,6,0.00
2013-12-6,49.5,41.8,34.9,48.9,37.3,25.9,98,85,54,30.03,29.77,4,-668,4,0.00
2013-12-7,42.3,31.9,17.8,33.6,22.2,-99.9,98,71,41,30.33,29.94,15,-559,15,0.00
2013-12-8,32.7,23.9,13.5,18.5,12.8,9.1,91,64,42,30.47,30.30,8,-764,8,0.00
2013-12-9,32.9,27.4,26.1,32.4,17.8,-99.9,98,79,52,30.42,29.77,0,-999,0,0.00
2013-12-10,34.9,19.0,15.1,32.7,-13.4,-99.9,98,64,79,29.85,29.65,6,-840,6,0.00
2013-12-11,35.8,23.3,11.5,18.1,13.3,8.6,97,67,44,30.06,29.83,17,5,17,0.00
2013-12-12,28.6,15.3,4.1,17.1,-3.1,-20.4,84,48,12,30.15,29.91,11,2,11,0.00
2013-12-13,34.0,14.4,3.2,15.6,-2.8,-17.1,77,46,37,30.30,29.83,14,2,14,0.00
2013-12-14,19.9,10.4,2.7,0.5,-4.5,-10.5,53,50,42,30.53,30.18,8,-404,8,0.00
2013-12-15,25.5,16.5,5.9,18.3,8.0,-3.3,98,70,50,30.18,29.32,18,-424,18,0.00
2013-12-16,34.9,15.6,0.7,17.2,0.9,-16.2,95,59,12,30.09,29.59,25,3,25,0.00
2013-12-17,24.8,6.9,-11.9,9.3,-6.2,-26.5,81,55,43,30.18,29.88,11,3,11,0.00
2013-12-18,46.9,23.7,6.1,27.5,13.5,0.5,82,67,39,29.94,29.77,18,3,18,0.00
2013-12-19,44.2,28.1,7.7,25.2,17.9,1.9,98,67,42,30.00,29.83,15,4,15,0.00
2013-12-20,55.2,35.5,25.7,35.8,28.0,20.1,98,76,46,30.03,29.80,7,1,7,0.00
2013-12-21,53.6,38.7,33.8,42.8,35.7,33.3,98,90,58,29.88,29.74,6,1,6,0.00
2013-12-22,40.1,33.1,29.5,39.4,32.5,28.9,98,98,96,29.97,29.77,15,5,15,0.00
2013-12-23,36.0,32.3,28.9,35.4,31.8,28.4,98,98,97,30.03,29.88,10,2,10,0.00
2013-12-24,42.4,30.3,19.9,32.5,20.3,5.9,98,68,43,30.12,29.94,17,2,17,0.00
2013-12-25,32.2,15.7,7.3,10.0,-0.2,-6.2,55,49,35,30.45,30.06,18,2,18,0.00
2013-12-26,31.5,19.3,8.1,26.4,12.3,-6.3,98,75,51,30.42,29.94,4,-572,4,0.00
2013-12-27,37.9,15.5,1.2,27.1,10.0,0.1,98,81,46,30.15,30.03,0,-999,0,0.00
2013-12-28,41.7,28.0,4.5,30.0,20.8,0.7,98,75,53,30.09,29.85,0,-999,0,0.00
2013-12-29,46.2,21.4,21.9,35.6,-12.1,-99.9,97,59,60,29.94,29.38,3,-930,3,0.00
2013-12-30,43.9,9.8,6.3,25.5,-52.8,-99.9,52,22,46,30.09,29.41,11,-776,11,0.00
2013-12-31,32.2,9.5,-0.9,10.2,-7.0,-17.1,58,46,34,30.09,29.94,0,-999,0,0.00
2014-1-1,30.6,9.5,-5.1,9.3,-11.9,-99.9,77,43,35,30.30,30.03,17,-725,17,0.00
2014-1-2,14.2,4.3,-3.1,7.3,-3.1,-9.2,74,71,48,30.30,29.83,20,-821,20,0.00